Time;durP1;ratioP1;P1;durP2;ratioP2;P2;SDS_P1;SDS_P2;PMS_P1;PMS_P2;Temp;Humidity;BMP_temperature;BMP_pressure;BME280_temperature;BME280_humidity;BME280_pressure;Samples;Min_cycle;Max_cycle;Signal;HPM_P1;HPM_P2
2023/02/19 00:09:56;;;;;;;11.90;6.10;;;;;;;4.68;92.36;98242.10;437680;1249;108640;-40
2023/02/19 00:20:04;;;;;;;12.10;7.10;;;;;;;4.56;92.26;98240.05;437608;1250;98478;-39
2023/02/19 00:30:13;;;;;;;6.80;5.50;;;;;;;4.52;92.21;98235.13;437687;1247;111425;-40
2023/02/19 00:40:19;;;;;;;8.70;6.30;;;;;;;4.57;92.16;98232.59;437566;1247;106896;-40
2023/02/19 00:50:26;;;;;;;8.20;5.20;;;;;;;4.63;92.02;98246.40;437636;1247;99208;-44
2023/02/19 01:00:33;;;;;;;7.60;5.40;;;;;;;4.66;91.97;98238.51;437612;1249;108724;-41
2023/02/19 01:10:40;;;;;;;9.50;5.60;;;;;;;4.68;91.83;98233.70;437699;1249;97972;-39
2023/02/19 01:20:48;;;;;;;11.00;6.60;;;;;;;4.68;91.98;98248.41;437621;1249;111904;-39
2023/02/19 01:30:55;;;;;;;10.00;6.20;;;;;;;4.62;91.97;98239.19;437561;1249;107702;-39
2023/02/19 01:41:05;;;;;;;7.80;5.30;;;;;;;4.59;91.75;98228.48;437669;1246;99113;-39
2023/02/19 01:51:17;;;;;;;7.10;4.20;;;;;;;4.62;91.72;98210.67;437600;1249;107749;-40
2023/02/19 02:01:24;;;;;;;5.30;4.40;;;;;;;4.64;91.77;98205.79;437598;1247;99237;-40
2023/02/19 02:11:31;;;;;;;10.30;5.90;;;;;;;4.68;91.61;98191.69;437863;1246;111881;-40
2023/02/19 02:21:56;;;;;;;12.40;7.20;;;;;;;4.69;91.69;98176.42;438545;1244;107805;-40
2023/02/19 02:32:01;;;;;;;10.20;6.20;;;;;;;4.59;91.65;98170.14;437634;1249;99198;-41
2023/02/19 03:03:03;;;;;;;4.20;2.60;;;;;;;4.47;91.47;98143.67;437504;1248;111902;-40
2023/02/19 03:34:06;;;;;;;4.10;2.90;;;;;;;4.34;91.58;98118.37;437144;1249;420246;-40
2023/02/19 03:44:17;;;;;;;4.90;3.80;;;;;;;4.29;91.55;98126.39;437580;1249;99234;-40
2023/02/19 03:54:22;;;;;;;4.20;2.80;;;;;;;4.32;91.47;98120.58;437433;1249;111462;-39
2023/02/19 04:04:34;;;;;;;2.80;2.40;;;;;;;4.42;91.64;98109.24;437575;1246;107260;-42
2023/02/19 04:14:42;;;;;;;3.20;2.90;;;;;;;4.56;91.65;98093.09;437539;1249;99227;-40
2023/02/19 04:24:54;;;;;;;6.80;4.90;;;;;;;4.64;91.58;98088.83;437446;1249;108649;-39
2023/02/19 04:35:01;;;;;;;4.10;3.50;;;;;;;4.63;91.66;98084.61;437583;1247;98808;-40
2023/02/19 04:45:08;;;;;;;3.00;2.30;;;;;;;4.69;91.78;98073.84;437484;1245;112039;-41
2023/02/19 04:55:15;;;;;;;5.60;3.60;;;;;;;4.69;92.08;98050.10;437654;1249;107738;-42
2023/02/19 05:05:22;;;;;;;4.40;3.10;;;;;;;4.70;92.30;98035.31;437588;1247;97977;-39
2023/02/19 05:15:29;;;;;;;2.90;2.30;;;;;;;4.75;92.25;98029.31;437415;1247;108616;-39
2023/02/19 05:25:36;;;;;;;2.60;2.40;;;;;;;4.84;92.32;98017.58;437526;1249;99231;-39
2023/02/19 05:35:42;;;;;;;2.10;1.30;;;;;;;4.91;92.46;98014.77;437429;1247;111820;-40
2023/02/19 05:45:49;;;;;;;1.90;1.50;;;;;;;4.97;92.51;98015.44;437475;1249;108486;-40
2023/02/19 05:55:57;;;;;;;0.80;0.80;;;;;;;5.03;92.55;98023.31;437417;1249;98004;-38
2023/02/19 06:06:05;;;;;;;2.40;1.30;;;;;;;5.06;92.86;98019.83;437417;1249;108902;-39
2023/02/19 06:16:13;;;;;;;16.10;10.90;;;;;;;5.09;92.86;98025.49;437474;1247;98567;-40
2023/02/19 06:26:23;;;;;;;8.00;6.00;;;;;;;5.12;92.92;98033.78;437400;1247;110734;-41
2023/02/19 06:46:37;;;;;;;1.50;1.40;;;;;;;5.16;93.04;98044.64;437519;1249;99234;-41
2023/02/19 06:56:44;;;;;;;1.50;0.70;;;;;;;5.19;93.37;98047.29;437584;1249;108057;-40
2023/02/19 07:06:53;;;;;;;1.30;1.20;;;;;;;5.15;93.60;98047.03;437565;1250;97917;-39
2023/02/19 07:17:00;;;;;;;1.80;1.70;;;;;;;5.09;93.78;98064.96;437501;1247;111271;-39
2023/02/19 07:27:07;;;;;;;5.30;3.50;;;;;;;4.98;94.15;98078.35;437630;1247;108520;-41
2023/02/19 07:37:15;;;;;;;3.40;2.60;;;;;;;4.66;94.05;98082.04;437565;1250;97909;-39
2023/02/19 07:47:22;;;;;;;7.80;4.60;;;;;;;4.40;94.13;98092.38;437564;1249;108700;-39
2023/02/19 07:57:30;;;;;;;5.50;2.80;;;;;;;4.29;94.11;98097.95;437482;1249;99275;-41
2023/02/19 08:07:37;;;;;;;3.20;2.20;;;;;;;4.03;94.27;98104.47;437552;1247;110700;-40
2023/02/19 08:17:44;;;;;;;4.20;2.20;;;;;;;3.79;94.32;98104.64;437350;1247;107833;-38
2023/02/19 08:27:51;;;;;;;4.30;2.90;;;;;;;3.72;94.15;98106.55;437317;1250;99215;-40
2023/02/19 08:37:59;;;;;;;2.90;2.40;;;;;;;3.59;93.84;98120.13;437109;1246;108116;-40
2023/02/19 08:48:06;;;;;;;3.60;2.20;;;;;;;3.31;93.72;98121.61;437260;1251;97916;-38
2023/02/19 08:58:13;;;;;;;5.50;2.60;;;;;;;3.29;93.43;98130.92;437206;1251;112099;-39
2023/02/19 09:08:21;;;;;;;5.90;3.20;;;;;;;3.45;93.60;98136.98;437253;1253;107139;-39
2023/02/19 09:18:27;;;;;;;8.20;2.90;;;;;;;3.49;93.49;98149.61;437325;1252;98835;-40
2023/02/19 09:28:35;;;;;;;3.70;1.60;;;;;;;3.48;93.36;98180.48;437433;1250;109440;-43
2023/02/19 09:38:42;;;;;;;6.40;3.20;;;;;;;3.25;93.26;98183.00;437482;1251;97969;-40
2023/02/19 09:48:49;;;;;;;5.50;3.40;;;;;;;3.17;93.19;98189.88;437627;1249;112852;-40
2023/02/19 09:58:59;;;;;;;7.00;5.10;;;;;;;3.23;93.19;98193.92;437586;1250;107401;-39
2023/02/19 10:09:11;;;;;;;7.90;3.10;;;;;;;3.36;93.29;98196.77;437670;1247;97970;-40
2023/02/19 10:19:19;;;;;;;10.60;4.50;;;;;;;3.42;93.16;98203.91;437500;1249;109060;-40
2023/02/19 10:29:26;;;;;;;10.00;4.30;;;;;;;3.50;92.91;98210.58;437537;1248;99325;-39
2023/02/19 11:10:05;;;;;;;10.10;4.30;;;;;;;3.78;92.38;98248.15;437410;1260;107258;-39
2023/02/19 11:20:17;;;;;;;5.80;3.30;;;;;;;3.88;92.49;98248.14;437505;1253;99109;-39
2023/02/19 11:30:42;;;;;;;9.70;3.00;;;;;;;4.09;92.38;98259.93;437527;1260;111165;-39
2023/02/19 11:40:49;;;;;;;6.30;2.90;;;;;;;4.19;91.97;98266.02;437462;1250;108679;-39
2023/02/19 11:51:01;;;;;;;5.00;2.50;;;;;;;4.27;91.67;98283.48;437411;1250;99128;-42
2023/02/19 12:01:14;;;;;;;6.30;3.80;;;;;;;4.12;91.36;98291.53;437529;1251;107694;-40
2023/02/19 12:11:39;;;;;;;6.10;4.90;;;;;;;3.91;91.32;98288.55;437595;1248;98716;-41
2023/02/19 12:21:55;;;;;;;4.70;3.50;;;;;;;4.24;91.44;98290.48;437504;1250;111195;-40
2023/02/19 12:32:15;;;;;;;16.00;8.50;;;;;;;4.19;90.99;98301.61;437451;1250;107362;-39
2023/02/19 12:42:20;;;;;;;;;;;;;;;3.94;90.74;98314.60;437463;1250;99295;-38
2023/02/19 12:52:35;;;;;;;8.40;5.70;;;;;;;3.77;90.57;98329.65;437600;1251;107779;-39
2023/02/19 13:02:40;;;;;;;12.00;6.30;;;;;;;3.60;90.44;98349.08;437575;1248;98574;-40
2023/02/19 13:12:49;;;;;;;9.30;6.50;;;;;;;3.61;89.99;98370.16;438339;1250;111872;-39
2023/02/19 13:43:33;;;;;;;8.70;6.20;;;;;;;3.84;88.37;98395.13;437586;1249;107949;-40
2023/02/19 14:04:18;;;;;;;23.20;12.40;;;;;;;3.74;86.43;98419.30;441047;1248;112883;-39
2023/02/19 14:24:33;;;;;;;12.20;6.10;;;;;;;3.72;85.14;98450.03;441232;1246;99187;-40
2023/02/19 14:34:44;;;;;;;16.70;8.30;;;;;;;3.68;83.55;98463.11;441609;1251;111687;-40
2023/02/19 14:45:07;;;;;;;16.80;8.70;;;;;;;3.43;82.45;98484.10;441244;1247;107100;-41
2023/02/19 14:55:20;;;;;;;9.90;4.00;;;;;;;3.35;81.80;98497.95;440184;1248;99221;-39
2023/02/19 15:05:30;;;;;;;76.90;24.20;;;;;;;3.23;81.87;98498.59;438828;1247;112408;-40
2023/02/19 15:15:43;;;;;;;44.70;14.60;;;;;;;3.07;81.08;98512.20;437645;1251;109140;-40
2023/02/19 15:25:50;;;;;;;18.80;6.70;;;;;;;2.96;80.06;98522.70;437296;1246;478555;-38
2023/02/19 15:36:00;;;;;;;12.60;5.90;;;;;;;2.89;80.46;98533.86;437694;1247;112850;-39
2023/02/19 15:46:10;;;;;;;24.20;10.90;;;;;;;2.73;80.66;98557.52;437631;1251;108738;-39
2023/02/19 15:56:15;;;;;;;19.50;6.30;;;;;;;2.57;80.83;98585.20;437687;1247;118821;-40
2023/02/19 16:06:25;;;;;;;10.20;4.50;;;;;;;2.53;80.70;98600.30;438437;1247;107058;-40
2023/02/19 16:16:35;;;;;;;20.00;10.80;;;;;;;2.49;80.78;98615.58;437587;1247;99211;-40
2023/02/19 16:26:44;;;;;;;23.60;11.60;;;;;;;2.42;80.57;98625.85;437666;1248;111509;-38
2023/02/19 16:36:51;;;;;;;29.10;14.30;;;;;;;2.30;80.75;98652.30;437657;1249;106339;-41
2023/02/19 16:57:09;;;;;;;6.90;3.50;;;;;;;2.22;80.79;98692.42;438644;1251;111066;-39
2023/02/19 17:07:17;;;;;;;12.90;5.50;;;;;;;2.18;80.84;98709.54;437704;1247;108479;-39
2023/02/19 17:17:24;;;;;;;10.90;5.00;;;;;;;2.04;80.63;98723.45;437781;1249;99277;-40
2023/02/19 17:27:30;;;;;;;11.90;3.80;;;;;;;1.86;80.64;98732.33;437577;1250;111320;-40
2023/02/19 17:37:37;;;;;;;9.30;4.00;;;;;;;1.78;80.87;98754.36;437673;1247;107430;-39
2023/02/19 17:47:45;;;;;;;21.00;8.50;;;;;;;1.71;81.15;98772.39;438646;1249;99230;-40
2023/02/19 17:57:53;;;;;;;32.70;13.30;;;;;;;1.59;81.35;98786.77;437682;1249;112857;-39
2023/02/19 18:08:01;;;;;;;40.30;15.30;;;;;;;1.37;81.57;98814.64;437752;1246;108830;-39
2023/02/19 18:18:08;;;;;;;42.00;19.20;;;;;;;1.16;81.80;98834.35;437851;1249;97905;-40
2023/02/19 18:28:16;;;;;;;21.50;13.00;;;;;;;1.03;81.99;98835.73;437688;1249;112374;-40
2023/02/19 18:38:24;;;;;;;41.00;15.10;;;;;;;1.02;82.22;98836.05;437602;1249;108840;-40
2023/02/19 18:48:31;;;;;;;78.00;32.80;;;;;;;1.08;82.53;98844.89;437715;1250;98685;-39
2023/02/19 18:58:39;;;;;;;47.00;17.60;;;;;;;1.01;82.68;98861.83;437784;1249;108487;-39
2023/02/19 19:08:46;;;;;;;70.80;26.90;;;;;;;0.91;82.99;98871.00;437599;1249;98409;-40
2023/02/19 19:18:54;;;;;;;58.40;23.10;;;;;;;0.78;82.93;98885.93;437579;1249;112551;-39
2023/02/19 19:29:01;;;;;;;38.90;15.30;;;;;;;0.60;83.02;98885.70;437615;1246;107473;-40
2023/02/19 19:39:09;;;;;;;25.70;11.00;;;;;;;0.53;83.06;98897.27;437617;1249;99230;-40
2023/02/19 19:49:17;;;;;;;18.20;10.00;;;;;;;0.53;83.26;98908.66;437638;1249;108561;-39
2023/02/19 19:59:24;;;;;;;22.90;10.80;;;;;;;0.50;83.33;98912.27;437612;1247;97974;-40
2023/02/19 20:09:32;;;;;;;28.60;13.50;;;;;;;0.48;83.49;98909.38;437687;1249;110402;-40
2023/02/19 20:19:39;;;;;;;31.00;13.70;;;;;;;0.45;83.74;98927.67;437677;1249;107397;-42
2023/02/19 20:29:46;;;;;;;20.40;8.80;;;;;;;0.35;83.56;98931.19;437637;1246;97970;-40
2023/02/19 20:39:54;;;;;;;16.10;8.00;;;;;;;0.27;83.62;98942.98;437458;1247;112063;-40
2023/02/19 20:50:01;;;;;;;24.80;10.40;;;;;;;0.24;83.69;98958.14;437536;1249;107892;-40
2023/02/19 21:10:16;;;;;;;30.40;11.20;;;;;;;0.31;83.97;98995.91;437575;1249;108599;-40
2023/02/19 21:20:23;;;;;;;30.00;12.20;;;;;;;0.26;84.28;98999.86;437535;1249;98038;-39
2023/02/19 21:30:31;;;;;;;21.60;10.00;;;;;;;0.17;84.20;99009.33;437584;1247;111681;-39
2023/02/19 21:40:37;;;;;;;15.10;5.90;;;;;;;0.06;84.19;99014.48;437584;1247;107333;-39
2023/02/19 21:50:44;;;;;;;17.40;5.90;;;;;;;0.06;84.22;99016.39;437613;1247;99196;-39
2023/02/19 22:10:58;;;;;;;38.50;14.90;;;;;;;0.09;84.43;99034.23;437600;1247;107851;-39
2023/02/19 22:21:04;;;;;;;27.80;8.80;;;;;;;-0.01;84.44;99042.46;437690;1249;99225;-42
2023/02/19 22:31:11;;;;;;;20.80;7.20;;;;;;;-0.09;84.59;99049.67;437743;1250;97964;-39
2023/02/19 22:41:20;;;;;;;20.30;6.60;;;;;;;-0.08;84.51;99057.09;437581;1246;108420;-39
2023/02/19 22:51:28;;;;;;;23.80;10.60;;;;;;;-0.02;84.61;99064.45;437665;1246;99285;-41
2023/02/19 23:01:36;;;;;;;21.70;8.00;;;;;;;0.05;84.61;99066.49;438239;1247;108592;-41
2023/02/19 23:11:44;;;;;;;17.80;6.60;;;;;;;0.06;84.77;99079.20;437597;1249;99692;-40
2023/02/19 23:21:51;;;;;;;18.80;6.00;;;;;;;0.01;84.82;99093.95;437584;1249;110622;-39
2023/02/19 23:42:06;;;;;;;21.80;5.40;;;;;;;-0.08;84.96;99088.09;437613;1246;99240;-40
2023/02/19 23:52:13;;;;;;;8.20;3.40;;;;;;;0.03;85.01;99083.05;437583;1249;112239;-40
